sensor_id;sensor_type;location;lat;lon;timestamp;temperature;humidity
74153;DHT22;62505;46.070;14.492;2022-08-19T00:00:51;25.40;79.40
74153;DHT22;62505;46.070;14.492;2022-08-19T00:03:18;25.40;79.40
74153;DHT22;62505;46.070;14.492;2022-08-19T00:05:45;25.40;79.50
74153;DHT22;62505;46.070;14.492;2022-08-19T00:08:12;25.40;79.50
74153;DHT22;62505;46.070;14.492;2022-08-19T00:10:39;25.40;79.60
74153;DHT22;62505;46.070;14.492;2022-08-19T00:13:06;25.40;79.50
74153;DHT22;62505;46.070;14.492;2022-08-19T00:15:34;25.40;79.60
74153;DHT22;62505;46.070;14.492;2022-08-19T00:18:01;25.40;79.50
74153;DHT22;62505;46.070;14.492;2022-08-19T00:20:28;25.40;79.50
74153;DHT22;62505;46.070;14.492;2022-08-19T00:22:55;25.40;79.40
74153;DHT22;62505;46.070;14.492;2022-08-19T00:25:22;25.40;79.40
74153;DHT22;62505;46.070;14.492;2022-08-19T00:27:50;25.40;79.50
74153;DHT22;62505;46.070;14.492;2022-08-19T00:30:17;25.40;79.40
74153;DHT22;62505;46.070;14.492;2022-08-19T00:32:45;25.40;79.50
74153;DHT22;62505;46.070;14.492;2022-08-19T00:35:12;25.40;79.50
74153;DHT22;62505;46.070;14.492;2022-08-19T00:37:39;25.40;79.50
74153;DHT22;62505;46.070;14.492;2022-08-19T00:40:10;25.40;79.50
74153;DHT22;62505;46.070;14.492;2022-08-19T00:42:38;25.40;79.50
74153;DHT22;62505;46.070;14.492;2022-08-19T00:45:10;25.40;79.40
74153;DHT22;62505;46.070;14.492;2022-08-19T00:47:37;25.40;79.40
74153;DHT22;62505;46.070;14.492;2022-08-19T00:50:09;25.40;79.50
74153;DHT22;62505;46.070;14.492;2022-08-19T00:52:38;25.40;79.60
74153;DHT22;62505;46.070;14.492;2022-08-19T00:55:08;25.40;79.50
74153;DHT22;62505;46.070;14.492;2022-08-19T00:57:37;25.40;79.60
74153;DHT22;62505;46.070;14.492;2022-08-19T01:00:08;25.40;79.60
74153;DHT22;62505;46.070;14.492;2022-08-19T01:02:36;25.40;79.50
74153;DHT22;62505;46.070;14.492;2022-08-19T01:05:09;25.40;79.50
74153;DHT22;62505;46.070;14.492;2022-08-19T01:07:39;25.40;79.60
74153;DHT22;62505;46.070;14.492;2022-08-19T01:10:10;25.40;79.60
74153;DHT22;62505;46.070;14.492;2022-08-19T01:12:38;25.40;79.50
74153;DHT22;62505;46.070;14.492;2022-08-19T01:15:08;25.40;79.40
74153;DHT22;62505;46.070;14.492;2022-08-19T01:17:36;25.40;79.50
74153;DHT22;62505;46.070;14.492;2022-08-19T01:20:07;25.40;80.40
74153;DHT22;62505;46.070;14.492;2022-08-19T01:22:42;25.40;79.60
74153;DHT22;62505;46.070;14.492;2022-08-19T01:25:09;25.40;79.70
74153;DHT22;62505;46.070;14.492;2022-08-19T01:27:38;25.40;79.60
74153;DHT22;62505;46.070;14.492;2022-08-19T01:30:06;25.40;79.70
74153;DHT22;62505;46.070;14.492;2022-08-19T01:32:33;25.40;79.70
74153;DHT22;62505;46.070;14.492;2022-08-19T01:35:00;25.40;79.50
74153;DHT22;62505;46.070;14.492;2022-08-19T01:37:28;25.40;79.60
74153;DHT22;62505;46.070;14.492;2022-08-19T01:39:57;25.40;79.60
74153;DHT22;62505;46.070;14.492;2022-08-19T01:42:24;25.40;79.50
74153;DHT22;62505;46.070;14.492;2022-08-19T01:44:51;25.40;79.50
74153;DHT22;62505;46.070;14.492;2022-08-19T01:47:18;25.40;79.50
74153;DHT22;62505;46.070;14.492;2022-08-19T01:49:45;25.40;79.50
74153;DHT22;62505;46.070;14.492;2022-08-19T01:52:12;25.40;79.60
74153;DHT22;62505;46.070;14.492;2022-08-19T01:54:38;25.40;79.50
74153;DHT22;62505;46.070;14.492;2022-08-19T01:57:10;25.40;79.50
74153;DHT22;62505;46.070;14.492;2022-08-19T01:59:39;25.40;79.50
74153;DHT22;62505;46.070;14.492;2022-08-19T02:02:06;25.40;79.60
74153;DHT22;62505;46.070;14.492;2022-08-19T02:04:34;25.40;80.40
74153;DHT22;62505;46.070;14.492;2022-08-19T02:07:01;25.40;79.60
74153;DHT22;62505;46.070;14.492;2022-08-19T02:09:28;25.40;79.70
74153;DHT22;62505;46.070;14.492;2022-08-19T02:11:54;25.40;79.70
74153;DHT22;62505;46.070;14.492;2022-08-19T02:14:23;25.40;79.90
74153;DHT22;62505;46.070;14.492;2022-08-19T02:16:50;25.40;79.80
74153;DHT22;62505;46.070;14.492;2022-08-19T02:19:17;25.40;79.70
74153;DHT22;62505;46.070;14.492;2022-08-19T02:21:44;25.40;79.30
74153;DHT22;62505;46.070;14.492;2022-08-19T02:24:10;25.30;79.30
74153;DHT22;62505;46.070;14.492;2022-08-19T02:26:38;25.30;79.50
74153;DHT22;62505;46.070;14.492;2022-08-19T02:29:05;25.30;79.60
74153;DHT22;62505;46.070;14.492;2022-08-19T02:31:33;25.30;80.30
74153;DHT22;62505;46.070;14.492;2022-08-19T02:34:00;25.20;80.10
74153;DHT22;62505;46.070;14.492;2022-08-19T02:36:27;25.20;79.90
74153;DHT22;62505;46.070;14.492;2022-08-19T02:38:55;25.20;79.60
74153;DHT22;62505;46.070;14.492;2022-08-19T02:41:23;25.20;80.00
74153;DHT22;62505;46.070;14.492;2022-08-19T02:43:51;25.30;79.80
74153;DHT22;62505;46.070;14.492;2022-08-19T02:46:19;25.30;80.20
74153;DHT22;62505;46.070;14.492;2022-08-19T02:48:48;25.30;80.30
74153;DHT22;62505;46.070;14.492;2022-08-19T02:51:17;25.30;80.20
74153;DHT22;62505;46.070;14.492;2022-08-19T02:53:44;25.30;80.20
74153;DHT22;62505;46.070;14.492;2022-08-19T02:56:11;25.30;80.00
74153;DHT22;62505;46.070;14.492;2022-08-19T02:58:39;25.30;79.90
74153;DHT22;62505;46.070;14.492;2022-08-19T03:01:06;25.30;79.80
74153;DHT22;62505;46.070;14.492;2022-08-19T03:03:33;25.30;79.90
74153;DHT22;62505;46.070;14.492;2022-08-19T03:06:08;25.30;80.00
74153;DHT22;62505;46.070;14.492;2022-08-19T03:08:36;25.40;79.90
74153;DHT22;62505;46.070;14.492;2022-08-19T03:11:04;25.30;79.80
74153;DHT22;62505;46.070;14.492;2022-08-19T03:13:31;25.40;79.80
74153;DHT22;62505;46.070;14.492;2022-08-19T03:15:58;25.30;80.40
74153;DHT22;62505;46.070;14.492;2022-08-19T03:18:25;25.30;79.70
74153;DHT22;62505;46.070;14.492;2022-08-19T03:20:52;25.30;79.40
74153;DHT22;62505;46.070;14.492;2022-08-19T03:23:22;25.30;79.20
74153;DHT22;62505;46.070;14.492;2022-08-19T03:25:51;25.30;79.20
74153;DHT22;62505;46.070;14.492;2022-08-19T03:28:19;25.30;79.60
74153;DHT22;62505;46.070;14.492;2022-08-19T03:30:56;25.30;79.70
74153;DHT22;62505;46.070;14.492;2022-08-19T03:33:28;25.30;79.60
74153;DHT22;62505;46.070;14.492;2022-08-19T03:36:04;25.30;79.70
74153;DHT22;62505;46.070;14.492;2022-08-19T03:38:34;25.30;79.60
74153;DHT22;62505;46.070;14.492;2022-08-19T03:41:05;25.30;79.60
74153;DHT22;62505;46.070;14.492;2022-08-19T03:43:34;25.30;79.30
74153;DHT22;62505;46.070;14.492;2022-08-19T03:46:03;25.30;79.60
74153;DHT22;62505;46.070;14.492;2022-08-19T03:48:31;25.30;79.50
74153;DHT22;62505;46.070;14.492;2022-08-19T03:50:59;25.30;79.60
74153;DHT22;62505;46.070;14.492;2022-08-19T03:53:27;25.30;79.50
74153;DHT22;62505;46.070;14.492;2022-08-19T03:55:56;25.40;79.60
74153;DHT22;62505;46.070;14.492;2022-08-19T03:58:25;25.30;79.50
74153;DHT22;62505;46.070;14.492;2022-08-19T04:00:53;25.30;79.50
74153;DHT22;62505;46.070;14.492;2022-08-19T04:03:20;25.30;79.50
74153;DHT22;62505;46.070;14.492;2022-08-19T04:05:47;25.30;79.40
74153;DHT22;62505;46.070;14.492;2022-08-19T04:08:14;25.30;79.50
74153;DHT22;62505;46.070;14.492;2022-08-19T04:10:46;25.30;79.60
74153;DHT22;62505;46.070;14.492;2022-08-19T04:13:14;25.30;79.40
74153;DHT22;62505;46.070;14.492;2022-08-19T04:15:43;25.40;79.50
74153;DHT22;62505;46.070;14.492;2022-08-19T04:18:12;25.40;79.50
74153;DHT22;62505;46.070;14.492;2022-08-19T04:20:41;25.30;79.40
74153;DHT22;62505;46.070;14.492;2022-08-19T04:23:08;25.30;79.60
74153;DHT22;62505;46.070;14.492;2022-08-19T04:25:37;25.40;79.50
74153;DHT22;62505;46.070;14.492;2022-08-19T04:28:04;25.30;79.30
74153;DHT22;62505;46.070;14.492;2022-08-19T04:30:37;25.40;79.50
74153;DHT22;62505;46.070;14.492;2022-08-19T04:33:04;25.30;79.70
74153;DHT22;62505;46.070;14.492;2022-08-19T04:35:35;25.40;79.60
74153;DHT22;62505;46.070;14.492;2022-08-19T04:38:03;25.40;79.60
74153;DHT22;62505;46.070;14.492;2022-08-19T04:40:30;25.40;79.60
74153;DHT22;62505;46.070;14.492;2022-08-19T04:43:14;25.40;79.60
74153;DHT22;62505;46.070;14.492;2022-08-19T04:45:43;25.40;79.60
74153;DHT22;62505;46.070;14.492;2022-08-19T04:48:10;25.40;79.60
74153;DHT22;62505;46.070;14.492;2022-08-19T04:50:41;25.40;79.60
74153;DHT22;62505;46.070;14.492;2022-08-19T04:53:08;25.40;79.50
74153;DHT22;62505;46.070;14.492;2022-08-19T04:55:39;25.40;79.60
74153;DHT22;62505;46.070;14.492;2022-08-19T04:58:06;25.40;79.90
74153;DHT22;62505;46.070;14.492;2022-08-19T05:00:33;25.40;79.90
74153;DHT22;62505;46.070;14.492;2022-08-19T05:03:01;25.30;80.80
74153;DHT22;62505;46.070;14.492;2022-08-19T05:05:28;25.40;81.50
74153;DHT22;62505;46.070;14.492;2022-08-19T05:07:57;25.40;82.00
74153;DHT22;62505;46.070;14.492;2022-08-19T05:10:24;25.40;84.00
74153;DHT22;62505;46.070;14.492;2022-08-19T05:12:51;25.40;84.90
74153;DHT22;62505;46.070;14.492;2022-08-19T05:15:18;25.40;85.10
74153;DHT22;62505;46.070;14.492;2022-08-19T05:17:45;25.40;85.30
74153;DHT22;62505;46.070;14.492;2022-08-19T05:20:27;25.50;85.90
74153;DHT22;62505;46.070;14.492;2022-08-19T05:23:12;25.50;87.60
74153;DHT22;62505;46.070;14.492;2022-08-19T05:25:42;25.50;89.90
74153;DHT22;62505;46.070;14.492;2022-08-19T05:28:10;25.50;90.70
74153;DHT22;62505;46.070;14.492;2022-08-19T05:30:36;25.50;88.70
74153;DHT22;62505;46.070;14.492;2022-08-19T05:33:03;25.50;90.30
74153;DHT22;62505;46.070;14.492;2022-08-19T05:35:32;25.50;90.60
74153;DHT22;62505;46.070;14.492;2022-08-19T05:37:58;25.50;90.50
74153;DHT22;62505;46.070;14.492;2022-08-19T05:40:25;25.50;88.20
74153;DHT22;62505;46.070;14.492;2022-08-19T05:42:52;25.50;88.20
74153;DHT22;62505;46.070;14.492;2022-08-19T05:45:19;25.50;87.40
74153;DHT22;62505;46.070;14.492;2022-08-19T05:47:47;25.50;88.70
74153;DHT22;62505;46.070;14.492;2022-08-19T05:50:14;25.60;89.00
74153;DHT22;62505;46.070;14.492;2022-08-19T05:52:44;25.50;87.00
74153;DHT22;62505;46.070;14.492;2022-08-19T05:55:11;25.50;85.90
74153;DHT22;62505;46.070;14.492;2022-08-19T05:57:39;25.50;84.30
74153;DHT22;62505;46.070;14.492;2022-08-19T06:00:07;25.50;83.90
74153;DHT22;62505;46.070;14.492;2022-08-19T06:02:36;25.50;84.00
74153;DHT22;62505;46.070;14.492;2022-08-19T06:05:04;25.50;84.20
74153;DHT22;62505;46.070;14.492;2022-08-19T06:07:34;25.50;84.00
74153;DHT22;62505;46.070;14.492;2022-08-19T06:10:03;25.50;82.90
74153;DHT22;62505;46.070;14.492;2022-08-19T06:12:30;25.50;83.00
74153;DHT22;62505;46.070;14.492;2022-08-19T06:15:01;25.50;83.10
74153;DHT22;62505;46.070;14.492;2022-08-19T06:17:29;25.50;83.30
74153;DHT22;62505;46.070;14.492;2022-08-19T06:19:56;25.50;83.40
74153;DHT22;62505;46.070;14.492;2022-08-19T06:22:23;25.50;83.00
74153;DHT22;62505;46.070;14.492;2022-08-19T06:24:50;25.50;83.10
74153;DHT22;62505;46.070;14.492;2022-08-19T06:27:20;25.50;82.90
74153;DHT22;62505;46.070;14.492;2022-08-19T06:29:47;25.50;83.00
74153;DHT22;62505;46.070;14.492;2022-08-19T06:32:16;25.50;83.00
74153;DHT22;62505;46.070;14.492;2022-08-19T06:34:44;25.50;83.00
74153;DHT22;62505;46.070;14.492;2022-08-19T06:37:11;25.50;83.00
74153;DHT22;62505;46.070;14.492;2022-08-19T06:39:39;25.50;83.30
74153;DHT22;62505;46.070;14.492;2022-08-19T06:42:07;25.50;83.20
74153;DHT22;62505;46.070;14.492;2022-08-19T06:44:40;25.50;82.80
74153;DHT22;62505;46.070;14.492;2022-08-19T06:47:08;25.50;82.60
74153;DHT22;62505;46.070;14.492;2022-08-19T06:49:35;25.50;82.50
74153;DHT22;62505;46.070;14.492;2022-08-19T06:52:04;25.40;83.20
74153;DHT22;62505;46.070;14.492;2022-08-19T06:54:31;25.40;82.20
74153;DHT22;62505;46.070;14.492;2022-08-19T06:56:59;25.40;82.30
74153;DHT22;62505;46.070;14.492;2022-08-19T06:59:28;25.40;82.50
74153;DHT22;62505;46.070;14.492;2022-08-19T07:02:02;25.40;82.50
74153;DHT22;62505;46.070;14.492;2022-08-19T07:04:32;25.40;82.40
74153;DHT22;62505;46.070;14.492;2022-08-19T07:07:02;25.40;82.40
74153;DHT22;62505;46.070;14.492;2022-08-19T07:09:33;25.40;82.20
74153;DHT22;62505;46.070;14.492;2022-08-19T07:12:03;25.40;82.20
74153;DHT22;62505;46.070;14.492;2022-08-19T07:14:32;25.40;83.00
74153;DHT22;62505;46.070;14.492;2022-08-19T07:17:03;25.40;82.00
74153;DHT22;62505;46.070;14.492;2022-08-19T07:19:31;25.40;82.00
74153;DHT22;62505;46.070;14.492;2022-08-19T07:21:58;25.40;81.70
74153;DHT22;62505;46.070;14.492;2022-08-19T07:24:27;25.40;81.60
74153;DHT22;62505;46.070;14.492;2022-08-19T07:26:57;25.40;81.40
74153;DHT22;62505;46.070;14.492;2022-08-19T07:29:27;25.40;81.60
74153;DHT22;62505;46.070;14.492;2022-08-19T07:31:55;25.40;81.40
74153;DHT22;62505;46.070;14.492;2022-08-19T07:34:26;25.40;81.60
74153;DHT22;62505;46.070;14.492;2022-08-19T07:36:54;25.40;81.40
74153;DHT22;62505;46.070;14.492;2022-08-19T07:39:27;25.40;81.30
74153;DHT22;62505;46.070;14.492;2022-08-19T07:41:56;25.40;82.10
74153;DHT22;62505;46.070;14.492;2022-08-19T07:44:24;25.40;81.20
74153;DHT22;62505;46.070;14.492;2022-08-19T07:46:53;25.40;81.20
74153;DHT22;62505;46.070;14.492;2022-08-19T07:49:21;25.40;81.10
74153;DHT22;62505;46.070;14.492;2022-08-19T07:51:52;25.40;81.20
74153;DHT22;62505;46.070;14.492;2022-08-19T07:54:21;25.40;81.00
74153;DHT22;62505;46.070;14.492;2022-08-19T07:56:48;25.40;80.90
74153;DHT22;62505;46.070;14.492;2022-08-19T07:59:16;25.40;80.90
74153;DHT22;62505;46.070;14.492;2022-08-19T08:01:43;25.30;80.70
74153;DHT22;62505;46.070;14.492;2022-08-19T08:04:10;25.40;80.80
74153;DHT22;62505;46.070;14.492;2022-08-19T08:06:56;25.40;80.70
74153;DHT22;62505;46.070;14.492;2022-08-19T08:09:42;25.40;80.60
74153;DHT22;62505;46.070;14.492;2022-08-19T08:12:12;25.40;80.80
74153;DHT22;62505;46.070;14.492;2022-08-19T08:14:42;25.40;80.80
74153;DHT22;62505;46.070;14.492;2022-08-19T08:17:10;25.40;80.70
74153;DHT22;62505;46.070;14.492;2022-08-19T08:19:38;25.30;80.40
74153;DHT22;62505;46.070;14.492;2022-08-19T08:22:10;25.40;80.40
74153;DHT22;62505;46.070;14.492;2022-08-19T08:25:03;25.40;80.60
74153;DHT22;62505;46.070;14.492;2022-08-19T08:27:30;25.40;80.50
74153;DHT22;62505;46.070;14.492;2022-08-19T08:29:57;25.40;80.30
74153;DHT22;62505;46.070;14.492;2022-08-19T08:32:24;25.40;80.50
74153;DHT22;62505;46.070;14.492;2022-08-19T08:34:52;25.40;80.60
74153;DHT22;62505;46.070;14.492;2022-08-19T08:37:21;25.40;80.30
74153;DHT22;62505;46.070;14.492;2022-08-19T08:39:48;25.40;80.00
74153;DHT22;62505;46.070;14.492;2022-08-19T08:42:20;25.40;80.10
74153;DHT22;62505;46.070;14.492;2022-08-19T08:44:55;25.30;80.10
74153;DHT22;62505;46.070;14.492;2022-08-19T08:47:25;25.40;80.10
74153;DHT22;62505;46.070;14.492;2022-08-19T08:49:56;25.40;80.20
74153;DHT22;62505;46.070;14.492;2022-08-19T08:52:28;25.30;80.00
74153;DHT22;62505;46.070;14.492;2022-08-19T08:54:59;25.30;79.90
74153;DHT22;62505;46.070;14.492;2022-08-19T08:57:30;25.40;80.00
74153;DHT22;62505;46.070;14.492;2022-08-19T09:00:03;25.30;79.80
74153;DHT22;62505;46.070;14.492;2022-08-19T09:02:32;25.30;79.80
74153;DHT22;62505;46.070;14.492;2022-08-19T09:04:59;25.30;79.80
74153;DHT22;62505;46.070;14.492;2022-08-19T09:07:41;25.40;80.00
74153;DHT22;62505;46.070;14.492;2022-08-19T09:10:16;25.30;79.90
74153;DHT22;62505;46.070;14.492;2022-08-19T09:12:54;25.40;79.90
74153;DHT22;62505;46.070;14.492;2022-08-19T09:15:29;25.30;79.70
74153;DHT22;62505;46.070;14.492;2022-08-19T09:18:00;25.30;79.80
74153;DHT22;62505;46.070;14.492;2022-08-19T09:20:29;25.30;79.60
74153;DHT22;62505;46.070;14.492;2022-08-19T09:22:58;25.30;79.80
74153;DHT22;62505;46.070;14.492;2022-08-19T09:25:25;25.30;79.50
74153;DHT22;62505;46.070;14.492;2022-08-19T09:27:53;25.40;79.60
74153;DHT22;62505;46.070;14.492;2022-08-19T09:30:23;25.30;79.60
74153;DHT22;62505;46.070;14.492;2022-08-19T09:32:51;25.40;79.50
74153;DHT22;62505;46.070;14.492;2022-08-19T09:35:20;25.40;80.30
74153;DHT22;62505;46.070;14.492;2022-08-19T09:37:48;25.40;79.50
74153;DHT22;62505;46.070;14.492;2022-08-19T09:40:18;25.30;79.30
74153;DHT22;62505;46.070;14.492;2022-08-19T09:42:46;25.30;79.40
74153;DHT22;62505;46.070;14.492;2022-08-19T09:45:14;25.30;79.40
74153;DHT22;62505;46.070;14.492;2022-08-19T09:47:42;25.30;79.40
74153;DHT22;62505;46.070;14.492;2022-08-19T09:50:11;25.30;79.30
74153;DHT22;62505;46.070;14.492;2022-08-19T09:52:38;25.30;79.30
74153;DHT22;62505;46.070;14.492;2022-08-19T09:55:09;25.30;79.30
74153;DHT22;62505;46.070;14.492;2022-08-19T09:57:38;25.30;79.30
74153;DHT22;62505;46.070;14.492;2022-08-19T10:00:07;25.30;79.10
74153;DHT22;62505;46.070;14.492;2022-08-19T10:02:35;25.40;79.40
74153;DHT22;62505;46.070;14.492;2022-08-19T10:05:03;25.40;79.50
74153;DHT22;62505;46.070;14.492;2022-08-19T10:07:47;25.30;79.10
74153;DHT22;62505;46.070;14.492;2022-08-19T10:10:14;25.30;79.10
74153;DHT22;62505;46.070;14.492;2022-08-19T10:12:43;25.30;79.20
74153;DHT22;62505;46.070;14.492;2022-08-19T10:15:13;25.30;79.20
74153;DHT22;62505;46.070;14.492;2022-08-19T10:17:40;25.30;79.10
74153;DHT22;62505;46.070;14.492;2022-08-19T10:20:07;25.30;79.20
74153;DHT22;62505;46.070;14.492;2022-08-19T10:22:34;25.30;79.20
74153;DHT22;62505;46.070;14.492;2022-08-19T10:25:04;25.30;79.10
74153;DHT22;62505;46.070;14.492;2022-08-19T10:27:31;25.30;79.10
74153;DHT22;62505;46.070;14.492;2022-08-19T10:29:59;25.30;79.00
74153;DHT22;62505;46.070;14.492;2022-08-19T10:32:26;25.30;79.00
74153;DHT22;62505;46.070;14.492;2022-08-19T10:34:55;25.30;78.90
74153;DHT22;62505;46.070;14.492;2022-08-19T10:37:22;25.30;79.10
74153;DHT22;62505;46.070;14.492;2022-08-19T10:39:49;25.40;79.00
74153;DHT22;62505;46.070;14.492;2022-08-19T10:42:17;25.30;78.90
74153;DHT22;62505;46.070;14.492;2022-08-19T10:44:44;25.30;79.00
74153;DHT22;62505;46.070;14.492;2022-08-19T10:47:13;25.30;79.00
74153;DHT22;62505;46.070;14.492;2022-08-19T10:49:41;25.30;78.70
74153;DHT22;62505;46.070;14.492;2022-08-19T10:52:22;25.30;78.90
74153;DHT22;62505;46.070;14.492;2022-08-19T10:55:02;25.30;79.00
74153;DHT22;62505;46.070;14.492;2022-08-19T10:57:56;25.30;78.90
74153;DHT22;62505;46.070;14.492;2022-08-19T11:00:24;25.40;79.00
74153;DHT22;62505;46.070;14.492;2022-08-19T11:02:52;25.30;78.90
74153;DHT22;62505;46.070;14.492;2022-08-19T11:05:19;25.30;78.70
74153;DHT22;62505;46.070;14.492;2022-08-19T11:07:47;25.30;78.90
74153;DHT22;62505;46.070;14.492;2022-08-19T11:10:15;25.30;78.70
74153;DHT22;62505;46.070;14.492;2022-08-19T11:12:44;25.30;78.70
74153;DHT22;62505;46.070;14.492;2022-08-19T11:15:12;25.30;78.70
74153;DHT22;62505;46.070;14.492;2022-08-19T11:17:39;25.30;78.70
74153;DHT22;62505;46.070;14.492;2022-08-19T11:20:11;25.30;78.70
74153;DHT22;62505;46.070;14.492;2022-08-19T11:22:39;25.30;78.90
74153;DHT22;62505;46.070;14.492;2022-08-19T11:25:08;25.30;78.50
74153;DHT22;62505;46.070;14.492;2022-08-19T11:27:38;25.30;78.60
74153;DHT22;62505;46.070;14.492;2022-08-19T11:30:08;25.30;78.70
74153;DHT22;62505;46.070;14.492;2022-08-19T11:32:35;25.30;78.60
74153;DHT22;62505;46.070;14.492;2022-08-19T11:35:02;25.30;78.60
74153;DHT22;62505;46.070;14.492;2022-08-19T11:37:30;25.30;78.70
74153;DHT22;62505;46.070;14.492;2022-08-19T11:39:58;25.30;78.60
74153;DHT22;62505;46.070;14.492;2022-08-19T11:42:25;25.40;79.40
74153;DHT22;62505;46.070;14.492;2022-08-19T11:45:10;25.30;78.50
74153;DHT22;62505;46.070;14.492;2022-08-19T11:47:39;25.30;78.50
74153;DHT22;62505;46.070;14.492;2022-08-19T11:50:06;25.40;78.60
74153;DHT22;62505;46.070;14.492;2022-08-19T11:52:34;25.30;78.40
74153;DHT22;62505;46.070;14.492;2022-08-19T11:55:02;25.30;78.40
74153;DHT22;62505;46.070;14.492;2022-08-19T11:57:29;25.30;78.40
74153;DHT22;62505;46.070;14.492;2022-08-19T11:59:56;25.40;78.40
74153;DHT22;62505;46.070;14.492;2022-08-19T12:02:23;25.30;78.90
74153;DHT22;62505;46.070;14.492;2022-08-19T12:04:51;25.40;78.10
74153;DHT22;62505;46.070;14.492;2022-08-19T12:07:18;25.40;78.30
74153;DHT22;62505;46.070;14.492;2022-08-19T12:09:46;25.30;78.30
74153;DHT22;62505;46.070;14.492;2022-08-19T12:12:13;25.30;78.00
74153;DHT22;62505;46.070;14.492;2022-08-19T12:14:40;25.30;78.20
74153;DHT22;62505;46.070;14.492;2022-08-19T12:17:07;25.30;78.20
74153;DHT22;62505;46.070;14.492;2022-08-19T12:19:36;25.30;77.90
74153;DHT22;62505;46.070;14.492;2022-08-19T12:22:04;25.30;78.30
74153;DHT22;62505;46.070;14.492;2022-08-19T12:24:33;25.30;78.20
74153;DHT22;62505;46.070;14.492;2022-08-19T12:27:02;25.30;78.30
74153;DHT22;62505;46.070;14.492;2022-08-19T12:29:29;25.30;78.20
74153;DHT22;62505;46.070;14.492;2022-08-19T12:31:57;25.30;78.40
74153;DHT22;62505;46.070;14.492;2022-08-19T12:34:27;25.30;78.20
74153;DHT22;62505;46.070;14.492;2022-08-19T12:36:57;25.30;78.00
74153;DHT22;62505;46.070;14.492;2022-08-19T12:39:24;25.40;77.80
74153;DHT22;62505;46.070;14.492;2022-08-19T12:41:51;25.30;77.80
74153;DHT22;62505;46.070;14.492;2022-08-19T12:44:20;25.30;77.80
74153;DHT22;62505;46.070;14.492;2022-08-19T12:46:47;25.30;78.40
74153;DHT22;62505;46.070;14.492;2022-08-19T12:49:15;25.40;77.70
74153;DHT22;62505;46.070;14.492;2022-08-19T12:51:42;25.30;77.60
74153;DHT22;62505;46.070;14.492;2022-08-19T12:54:09;25.30;77.50
74153;DHT22;62505;46.070;14.492;2022-08-19T12:56:36;25.40;77.80
74153;DHT22;62505;46.070;14.492;2022-08-19T12:59:04;25.30;78.00
74153;DHT22;62505;46.070;14.492;2022-08-19T13:01:34;25.30;77.80
74153;DHT22;62505;46.070;14.492;2022-08-19T13:04:01;25.30;77.80
74153;DHT22;62505;46.070;14.492;2022-08-19T13:06:29;25.30;78.00
74153;DHT22;62505;46.070;14.492;2022-08-19T13:08:56;25.30;77.90
74153;DHT22;62505;46.070;14.492;2022-08-19T13:11:23;25.30;77.80
74153;DHT22;62505;46.070;14.492;2022-08-19T13:13:51;25.30;77.90
74153;DHT22;62505;46.070;14.492;2022-08-19T13:16:20;25.30;77.90
74153;DHT22;62505;46.070;14.492;2022-08-19T13:18:49;25.40;77.80
74153;DHT22;62505;46.070;14.492;2022-08-19T13:21:17;25.30;77.70
74153;DHT22;62505;46.070;14.492;2022-08-19T13:23:46;25.40;77.80
74153;DHT22;62505;46.070;14.492;2022-08-19T13:26:14;25.30;77.40
74153;DHT22;62505;46.070;14.492;2022-08-19T13:28:42;25.30;77.70
74153;DHT22;62505;46.070;14.492;2022-08-19T13:31:31;25.30;77.60
74153;DHT22;62505;46.070;14.492;2022-08-19T13:34:18;25.30;77.40
74153;DHT22;62505;46.070;14.492;2022-08-19T13:36:46;25.30;77.50
74153;DHT22;62505;46.070;14.492;2022-08-19T13:39:13;25.30;77.60
74153;DHT22;62505;46.070;14.492;2022-08-19T13:41:43;25.30;77.60
74153;DHT22;62505;46.070;14.492;2022-08-19T13:44:13;25.40;77.70
74153;DHT22;62505;46.070;14.492;2022-08-19T13:46:40;25.30;77.60
74153;DHT22;62505;46.070;14.492;2022-08-19T13:49:10;25.30;77.60
74153;DHT22;62505;46.070;14.492;2022-08-19T13:51:38;25.30;77.80
74153;DHT22;62505;46.070;14.492;2022-08-19T13:54:06;25.30;77.60
74153;DHT22;62505;46.070;14.492;2022-08-19T13:56:34;25.30;77.60
74153;DHT22;62505;46.070;14.492;2022-08-19T13:59:01;25.30;77.60
74153;DHT22;62505;46.070;14.492;2022-08-19T14:01:28;25.30;77.60
74153;DHT22;62505;46.070;14.492;2022-08-19T14:03:55;25.40;77.60
74153;DHT22;62505;46.070;14.492;2022-08-19T14:06:22;25.40;77.60
74153;DHT22;62505;46.070;14.492;2022-08-19T14:08:52;25.40;77.40
74153;DHT22;62505;46.070;14.492;2022-08-19T14:11:19;25.30;77.50
74153;DHT22;62505;46.070;14.492;2022-08-19T14:13:48;25.30;77.10
74153;DHT22;62505;46.070;14.492;2022-08-19T14:16:15;25.40;77.40
74153;DHT22;62505;46.070;14.492;2022-08-19T14:18:42;25.30;77.40
74153;DHT22;62505;46.070;14.492;2022-08-19T14:21:16;25.30;77.50
74153;DHT22;62505;46.070;14.492;2022-08-19T14:23:43;25.30;77.40
74153;DHT22;62505;46.070;14.492;2022-08-19T14:26:15;25.40;77.30
74153;DHT22;62505;46.070;14.492;2022-08-19T14:28:43;25.30;77.30
74153;DHT22;62505;46.070;14.492;2022-08-19T14:31:11;25.30;77.40
74153;DHT22;62505;46.070;14.492;2022-08-19T14:33:38;25.30;77.40
74153;DHT22;62505;46.070;14.492;2022-08-19T14:36:06;25.30;77.30
74153;DHT22;62505;46.070;14.492;2022-08-19T14:38:33;25.40;77.30
74153;DHT22;62505;46.070;14.492;2022-08-19T14:41:14;25.30;77.30
74153;DHT22;62505;46.070;14.492;2022-08-19T14:43:42;25.40;77.20
74153;DHT22;62505;46.070;14.492;2022-08-19T14:46:12;25.30;77.30
74153;DHT22;62505;46.070;14.492;2022-08-19T14:48:39;25.30;77.10
74153;DHT22;62505;46.070;14.492;2022-08-19T14:51:06;25.30;77.30
74153;DHT22;62505;46.070;14.492;2022-08-19T14:53:33;25.30;77.20
74153;DHT22;62505;46.070;14.492;2022-08-19T14:56:01;25.40;77.30
74153;DHT22;62505;46.070;14.492;2022-08-19T14:58:29;25.40;77.30
74153;DHT22;62505;46.070;14.492;2022-08-19T15:00:58;25.40;77.20
74153;DHT22;62505;46.070;14.492;2022-08-19T15:03:25;25.30;77.20
74153;DHT22;62505;46.070;14.492;2022-08-19T15:05:52;25.30;77.30
74153;DHT22;62505;46.070;14.492;2022-08-19T15:08:22;25.30;77.00
74153;DHT22;62505;46.070;14.492;2022-08-19T15:10:50;25.30;77.10
74153;DHT22;62505;46.070;14.492;2022-08-19T15:13:17;25.40;77.20
74153;DHT22;62505;46.070;14.492;2022-08-19T15:15:47;25.30;77.00
74153;DHT22;62505;46.070;14.492;2022-08-19T15:18:14;25.40;77.20
74153;DHT22;62505;46.070;14.492;2022-08-19T15:20:41;25.40;77.10
74153;DHT22;62505;46.070;14.492;2022-08-19T15:23:09;25.40;77.10
74153;DHT22;62505;46.070;14.492;2022-08-19T15:25:36;25.30;77.00